Terminal Aerodrome Forecast
Issued by NWS Chicago, IL

Home | Current Version | Previous Version | Text Only | Print | Product List | Glossary Off
Versions: 1 2 3 4 5 6 7 8 9 10 11 12 13 14 15 16 17 18 19 20

927
FTUS43 KLOT 232324
TAFRFD
TAF
KRFD 232324Z 2400/2424 06011KT P6SM SCT150 BKN250
     FM240500 03005KT P6SM BKN150
     FM241000 01005KT P6SM BKN030 OVC050
     FM241600 03009KT P6SM SCT035 BKN150
     FM242000 02013KT P6SM BKN120=

USA.gov is the U.S. government's official web portal to all federal, state and local government web resources and services.